createdAt,value
2023-03-21T00:00:04.435Z,21.40
2023-03-21T00:01:04.391Z,18.40
2023-03-21T00:02:04.466Z,21.30
2023-03-21T00:03:04.371Z,19.10
2023-03-21T00:04:04.439Z,21.30
2023-03-21T00:05:15.129Z,18.70
2023-03-21T00:06:04.368Z,20.60
2023-03-21T00:07:04.333Z,19.40
2023-03-21T00:08:04.353Z,19.90
2023-03-21T00:09:04.308Z,20.40
2023-03-21T00:10:14.351Z,19.30
2023-03-21T00:11:04.319Z,20.20
2023-03-21T00:12:04.290Z,19.80
2023-03-21T00:13:04.256Z,20.00
2023-03-21T00:14:04.268Z,19.90
2023-03-21T00:15:04.239Z,18.00
2023-03-21T00:16:08.916Z,19.60
2023-03-21T00:17:04.273Z,20.00
2023-03-21T00:18:04.235Z,18.70
2023-03-21T00:19:04.192Z,22.40
2023-03-21T00:20:04.205Z,19.80
2023-03-21T00:21:35.649Z,21.70
2023-03-21T00:22:08.153Z,20.40
2023-03-21T00:23:04.192Z,21.30
2023-03-21T00:24:04.171Z,19.70
2023-03-21T00:25:04.143Z,21.50
2023-03-21T00:26:04.155Z,19.50
2023-03-21T00:27:26.950Z,20.60
2023-03-21T00:28:08.466Z,20.70
2023-03-21T00:29:04.104Z,21.20
2023-03-21T00:30:04.106Z,21.80
2023-03-21T00:31:04.090Z,18.20
2023-03-21T00:32:04.080Z,20.80
2023-03-21T00:33:15.840Z,20.50
2023-03-21T00:34:04.077Z,21.70
2023-03-21T00:35:26.119Z,20.30
2023-03-21T00:36:05.765Z,22.30
2023-03-21T00:37:03.998Z,22.00
2023-03-21T00:38:04.012Z,17.50
2023-03-21T00:39:03.979Z,21.30
2023-03-21T00:40:04.269Z,20.60
2023-03-21T00:41:11.034Z,18.90
2023-03-21T00:42:03.972Z,20.00
2023-03-21T00:43:03.953Z,18.70
2023-03-21T00:44:03.968Z,19.30
2023-03-21T00:45:03.958Z,20.20
2023-03-21T00:46:03.926Z,21.40
2023-03-21T00:47:07.656Z,19.60
2023-03-21T00:48:04.072Z,19.60
2023-03-21T00:49:03.874Z,20.30
2023-03-21T00:50:03.895Z,21.40
2023-03-21T00:51:03.860Z,19.90
2023-03-21T00:52:30.516Z,20.30
2023-03-21T00:53:03.871Z,20.20
2023-03-21T00:54:03.843Z,20.70
2023-03-21T00:55:03.814Z,20.90
2023-03-21T00:56:03.833Z,20.30
2023-03-21T00:57:03.786Z,19.60
2023-03-21T00:58:03.803Z,21.30
2023-03-21T00:59:03.787Z,17.80
2023-03-21T01:00:03.785Z,22.10
2023-03-21T01:01:03.780Z,20.00
2023-03-21T01:02:03.819Z,21.10
2023-03-21T01:03:14.210Z,18.20
2023-03-21T01:04:03.754Z,20.10
2023-03-21T01:05:03.737Z,21.70
2023-03-21T01:06:03.745Z,19.40
2023-03-21T01:07:03.691Z,20.70
2023-03-21T01:08:08.145Z,20.90
2023-03-21T01:09:03.675Z,18.90
2023-03-21T01:10:03.674Z,21.40
2023-03-21T01:11:03.658Z,20.50
2023-03-21T01:12:03.653Z,20.40
2023-03-21T01:13:03.628Z,20.20
2023-03-21T01:14:20.770Z,18.00
2023-03-21T01:15:03.600Z,20.90
2023-03-21T01:16:03.625Z,21.40
2023-03-21T01:17:03.598Z,19.40
2023-03-21T01:18:03.597Z,20.70
2023-03-21T01:19:07.044Z,19.90
2023-03-21T01:20:03.571Z,22.30
2023-03-21T01:21:03.526Z,21.20
2023-03-21T01:22:03.540Z,20.40
2023-03-21T01:23:03.537Z,19.60
2023-03-21T01:24:03.524Z,19.20
2023-03-21T01:25:21.041Z,19.90
2023-03-21T01:26:03.504Z,19.30
2023-03-21T01:27:03.503Z,18.90
2023-03-21T01:28:03.486Z,19.90
2023-03-21T01:29:03.483Z,21.60
2023-03-21T01:30:06.243Z,20.20
2023-03-21T01:31:03.431Z,21.50
2023-03-21T01:32:03.435Z,23.10
2023-03-21T01:33:03.401Z,21.40
2023-03-21T01:34:03.427Z,21.50
2023-03-21T01:35:03.420Z,30.80
2023-03-21T01:36:12.820Z,23.60
2023-03-21T01:37:03.410Z,21.40
2023-03-21T01:38:03.368Z,19.60
2023-03-21T01:39:03.336Z,20.50
2023-03-21T01:40:03.362Z,23.80
2023-03-21T01:41:08.609Z,20.50
2023-03-21T01:42:03.337Z,20.50
2023-03-21T01:43:03.321Z,20.20
2023-03-21T01:44:03.326Z,21.00
2023-03-21T01:45:03.289Z,19.40
2023-03-21T01:46:03.317Z,19.10
2023-03-21T01:47:11.023Z,20.70
2023-03-21T01:48:03.302Z,18.20
2023-03-21T01:49:03.250Z,19.70
2023-03-21T01:50:03.258Z,20.90
2023-03-21T01:51:03.213Z,22.80
2023-03-21T01:52:11.504Z,20.30
2023-03-21T01:53:03.232Z,22.20
2023-03-21T01:54:03.228Z,21.10
2023-03-21T01:55:03.167Z,20.60
2023-03-21T01:56:03.179Z,21.20
2023-03-21T01:57:03.151Z,23.80
2023-03-21T01:58:06.270Z,23.10
2023-03-21T01:59:03.147Z,21.40
2023-03-21T02:00:03.134Z,22.50
2023-03-21T02:01:03.237Z,20.70
2023-03-21T02:02:03.112Z,23.00
2023-03-21T02:03:13.624Z,20.80
2023-03-21T02:04:03.121Z,21.80
2023-03-21T02:05:03.072Z,22.10
2023-03-21T02:06:03.069Z,24.00
2023-03-21T02:07:03.045Z,22.90
2023-03-21T02:08:03.047Z,20.70
2023-03-21T02:09:03.019Z,22.10
2023-03-21T02:10:03.039Z,24.50
2023-03-21T02:11:03.028Z,22.50
2023-03-21T02:12:03.006Z,23.40
2023-03-21T02:13:02.976Z,26.20
2023-03-21T02:14:06.681Z,23.90
2023-03-21T02:15:02.963Z,23.50
2023-03-21T02:16:02.961Z,21.30
2023-03-21T02:17:02.947Z,23.80
2023-03-21T02:18:02.944Z,20.10
2023-03-21T02:19:02.913Z,22.80
2023-03-21T02:20:02.926Z,22.80
2023-03-21T02:21:02.887Z,22.20
2023-03-21T02:22:02.922Z,23.80
2023-03-21T02:23:02.883Z,23.10
2023-03-21T02:24:02.892Z,23.10
2023-03-21T02:25:08.269Z,22.00
2023-03-21T02:26:02.900Z,25.20
2023-03-21T02:27:04.325Z,21.60
2023-03-21T02:28:02.845Z,23.60
2023-03-21T02:29:02.839Z,21.10
2023-03-21T02:30:02.820Z,23.10
2023-03-21T02:31:02.820Z,22.90
2023-03-21T02:32:15.151Z,23.00
2023-03-21T02:33:02.774Z,21.80
2023-03-21T02:34:02.798Z,20.80
2023-03-21T02:35:02.772Z,21.00
2023-03-21T02:36:12.003Z,22.00
2023-03-21T02:37:02.727Z,22.10
2023-03-21T02:38:02.735Z,23.70
2023-03-21T02:39:02.731Z,21.60
2023-03-21T02:40:02.709Z,22.80
2023-03-21T02:41:05.375Z,21.70
2023-03-21T02:42:02.711Z,22.60
2023-03-21T02:43:03.043Z,21.60
2023-03-21T02:44:02.663Z,20.10
2023-03-21T02:45:02.641Z,34.50
2023-03-21T02:46:02.806Z,25.40
2023-03-21T02:47:06.376Z,22.20
2023-03-21T02:48:03.017Z,22.30
2023-03-21T02:49:02.619Z,23.80
2023-03-21T02:50:02.613Z,22.20
2023-03-21T02:51:02.591Z,23.50
2023-03-21T02:52:13.611Z,21.50
2023-03-21T02:53:02.600Z,23.30
2023-03-21T02:54:27.869Z,20.90
2023-03-21T02:55:02.557Z,21.00
2023-03-21T02:56:02.518Z,22.20
2023-03-21T02:57:02.533Z,21.70
2023-03-21T02:58:12.420Z,23.90
2023-03-21T02:59:02.564Z,22.20
2023-03-21T03:00:14.028Z,20.80
2023-03-21T03:01:02.496Z,24.00
2023-03-21T03:02:02.471Z,19.60
2023-03-21T03:03:10.093Z,20.50
2023-03-21T03:04:02.595Z,23.90
2023-03-21T03:05:06.428Z,20.30
2023-03-21T03:06:02.415Z,24.00
2023-03-21T03:07:02.427Z,22.80
2023-03-21T03:08:02.403Z,22.20
2023-03-21T03:09:03.237Z,21.90
2023-03-21T03:10:02.382Z,24.60
2023-03-21T03:11:02.403Z,23.20
2023-03-21T03:12:02.349Z,21.50
2023-03-21T03:13:02.359Z,22.70
2023-03-21T03:14:15.630Z,22.90
2023-03-21T03:15:04.179Z,22.20
2023-03-21T03:16:02.504Z,23.10
2023-03-21T03:17:02.338Z,24.50
2023-03-21T03:18:02.292Z,19.90
2023-03-21T03:19:02.298Z,23.10
2023-03-21T03:20:15.254Z,25.00
2023-03-21T03:21:02.280Z,20.80
2023-03-21T03:22:02.243Z,22.00
2023-03-21T03:23:02.275Z,22.60
2023-03-21T03:24:02.221Z,23.00
2023-03-21T03:25:12.571Z,20.60
2023-03-21T03:26:02.209Z,24.90
2023-03-21T03:27:02.214Z,22.40
2023-03-21T03:28:02.177Z,21.80
2023-03-21T03:29:02.236Z,20.80
2023-03-21T03:30:02.163Z,22.00
2023-03-21T03:31:09.367Z,24.90
2023-03-21T03:32:02.274Z,20.80
2023-03-21T03:33:02.147Z,23.00
2023-03-21T03:34:02.133Z,21.50
2023-03-21T03:35:02.147Z,20.60
2023-03-21T03:36:06.486Z,23.30
2023-03-21T03:37:02.136Z,23.00
2023-03-21T03:38:02.076Z,21.10
2023-03-21T03:39:02.085Z,22.00
2023-03-21T03:40:02.057Z,21.70
2023-03-21T03:41:02.087Z,22.90
2023-03-21T03:42:12.508Z,20.90
2023-03-21T03:43:02.046Z,22.00
2023-03-21T03:44:02.005Z,23.20
2023-03-21T03:45:02.020Z,22.50
2023-03-21T03:46:02.003Z,21.50
2023-03-21T03:47:02.016Z,22.40
2023-03-21T03:48:02.013Z,21.80
2023-03-21T03:49:01.976Z,25.30
2023-03-21T03:50:01.941Z,23.00
2023-03-21T03:51:01.959Z,21.70
2023-03-21T03:52:01.922Z,20.70
2023-03-21T03:53:07.118Z,24.90
2023-03-21T03:54:01.924Z,21.30
2023-03-21T03:55:01.920Z,20.70
2023-03-21T03:56:01.889Z,22.90
2023-03-21T03:57:01.898Z,20.30
2023-03-21T03:58:03.189Z,23.40
2023-03-21T03:59:01.900Z,20.60
2023-03-21T04:00:01.836Z,20.20
2023-03-21T04:01:01.874Z,20.90
2023-03-21T04:02:01.973Z,22.30
2023-03-21T04:03:01.988Z,21.40
2023-03-21T04:04:12.604Z,21.90
2023-03-21T04:05:01.840Z,22.50
2023-03-21T04:06:01.780Z,24.30
2023-03-21T04:07:01.793Z,22.60
2023-03-21T04:08:01.754Z,23.10
2023-03-21T04:09:07.874Z,24.80
2023-03-21T04:10:01.739Z,23.70
2023-03-21T04:11:01.763Z,22.10
2023-03-21T04:12:01.718Z,23.00
2023-03-21T04:13:01.732Z,22.60
2023-03-21T04:14:01.718Z,26.00
2023-03-21T04:15:10.124Z,25.20
2023-03-21T04:16:01.742Z,22.50
2023-03-21T04:17:01.735Z,20.30
2023-03-21T04:18:01.646Z,22.40
2023-03-21T04:19:01.661Z,22.80
2023-03-21T04:20:11.335Z,25.30
2023-03-21T04:21:01.654Z,23.70
2023-03-21T04:22:01.627Z,23.20
2023-03-21T04:23:01.656Z,22.10
2023-03-21T04:24:01.595Z,20.90
2023-03-21T04:25:01.612Z,25.90
2023-03-21T04:26:01.563Z,24.50
2023-03-21T04:27:01.605Z,24.30
2023-03-21T04:28:01.556Z,26.60
2023-03-21T04:29:01.570Z,22.90
2023-03-21T04:30:01.536Z,24.20
2023-03-21T04:31:08.783Z,24.30
2023-03-21T04:32:01.585Z,24.30
2023-03-21T04:33:01.517Z,23.80
2023-03-21T04:34:01.488Z,24.80
2023-03-21T04:35:01.512Z,26.00
2023-03-21T04:36:01.480Z,22.40
2023-03-21T04:37:01.471Z,24.10
2023-03-21T04:38:01.436Z,23.70
2023-03-21T04:39:01.476Z,27.20
2023-03-21T04:40:01.426Z,26.00
2023-03-21T04:41:01.456Z,23.10
2023-03-21T04:42:01.397Z,25.70
2023-03-21T04:43:01.429Z,26.70
2023-03-21T04:44:01.372Z,25.00
2023-03-21T04:45:01.394Z,23.10
2023-03-21T04:46:01.404Z,27.00
2023-03-21T04:47:01.384Z,25.20
2023-03-21T04:48:01.350Z,26.80
2023-03-21T04:49:01.351Z,25.00
2023-03-21T04:50:01.320Z,26.00
2023-03-21T04:51:01.326Z,26.70
2023-03-21T04:52:01.293Z,25.90
2023-03-21T04:53:01.343Z,26.00
2023-03-21T04:54:01.262Z,26.20
2023-03-21T04:55:01.293Z,28.10
2023-03-21T04:56:01.270Z,26.70
2023-03-21T04:57:01.241Z,28.20
2023-03-21T04:58:01.250Z,28.30
2023-03-21T04:59:01.234Z,25.20
2023-03-21T05:00:01.226Z,27.00
2023-03-21T05:01:01.240Z,26.70
2023-03-21T05:02:01.196Z,27.10
2023-03-21T05:03:01.165Z,27.10
2023-03-21T05:04:01.219Z,27.60
2023-03-21T05:05:01.171Z,25.50
2023-03-21T05:06:01.156Z,27.30
2023-03-21T05:07:01.124Z,28.50
2023-03-21T05:08:01.144Z,25.70
2023-03-21T05:09:01.101Z,25.80
2023-03-21T05:10:02.595Z,26.40
2023-03-21T05:11:01.110Z,28.70
2023-03-21T05:12:01.096Z,28.10
2023-03-21T05:13:01.074Z,28.40
2023-03-21T05:14:01.069Z,28.30
2023-03-21T05:15:01.047Z,27.10
2023-03-21T05:16:01.054Z,27.80
2023-03-21T05:17:01.127Z,25.30
2023-03-21T05:18:01.066Z,26.10
2023-03-21T05:19:01.004Z,30.40
2023-03-21T05:20:01.014Z,30.60
2023-03-21T05:21:00.973Z,28.30
2023-03-21T05:22:00.986Z,28.80
2023-03-21T05:23:01.047Z,26.00
2023-03-21T05:24:00.999Z,27.90
2023-03-21T05:25:00.928Z,27.90
2023-03-21T05:26:00.970Z,29.60
2023-03-21T05:27:01.669Z,27.80
2023-03-21T05:28:00.940Z,27.90
2023-03-21T05:29:00.903Z,27.40
2023-03-21T05:30:00.923Z,27.40
2023-03-21T05:31:00.913Z,26.80
2023-03-21T05:32:00.882Z,28.50
2023-03-21T05:33:00.866Z,30.80
2023-03-21T05:34:00.862Z,26.70
2023-03-21T05:35:00.853Z,26.60
2023-03-21T05:36:00.869Z,25.90
2023-03-21T05:37:00.803Z,29.10
2023-03-21T05:38:00.824Z,41.50
2023-03-21T05:39:00.780Z,26.90
2023-03-21T05:40:00.806Z,29.50
2023-03-21T05:41:00.785Z,28.40
2023-03-21T05:42:00.778Z,27.40
2023-03-21T05:43:00.742Z,27.50
2023-03-21T05:44:00.748Z,26.00
2023-03-21T05:45:00.728Z,29.10
2023-03-21T05:46:00.782Z,30.00
2023-03-21T05:47:00.716Z,25.90
2023-03-21T05:48:00.823Z,28.30
2023-03-21T05:49:00.672Z,26.50
2023-03-21T05:50:00.691Z,27.40
2023-03-21T05:51:00.653Z,29.30
2023-03-21T05:52:00.674Z,31.50
2023-03-21T05:53:00.670Z,26.50
2023-03-21T05:54:00.651Z,27.80
2023-03-21T05:55:00.619Z,30.40
2023-03-21T05:56:00.641Z,27.50
2023-03-21T05:57:00.590Z,28.70
2023-03-21T05:58:00.608Z,31.10
2023-03-21T05:59:00.584Z,31.30
2023-03-21T06:00:00.581Z,29.70
2023-03-21T06:01:00.545Z,28.90
2023-03-21T06:02:00.565Z,26.60
2023-03-21T06:03:00.589Z,28.40
2023-03-21T06:04:00.611Z,27.40
2023-03-21T06:05:00.528Z,28.20
2023-03-21T06:06:00.530Z,26.80
2023-03-21T06:07:00.483Z,27.90
2023-03-21T06:08:00.501Z,28.80
2023-03-21T06:09:00.516Z,28.70
2023-03-21T06:10:00.475Z,28.60
2023-03-21T06:11:00.456Z,28.90
2023-03-21T06:12:00.467Z,27.60
2023-03-21T06:13:00.420Z,26.40
2023-03-21T06:14:00.441Z,28.20
2023-03-21T06:15:00.403Z,32.00
2023-03-21T06:16:00.516Z,30.50
2023-03-21T06:17:00.402Z,28.00
2023-03-21T06:18:00.393Z,27.90
2023-03-21T06:19:00.377Z,29.00
2023-03-21T06:20:00.376Z,28.30
2023-03-21T06:21:00.333Z,28.10
2023-03-21T06:22:00.350Z,29.20
2023-03-21T06:23:00.333Z,29.40
2023-03-21T06:24:00.325Z,29.00
2023-03-21T06:25:00.294Z,26.40
2023-03-21T06:26:00.309Z,28.50
2023-03-21T06:27:02.366Z,27.60
2023-03-21T06:28:00.289Z,28.00
2023-03-21T06:29:00.275Z,27.60
2023-03-21T06:30:00.267Z,27.10
2023-03-21T06:31:00.286Z,26.50
2023-03-21T06:32:00.242Z,29.00
2023-03-21T06:33:00.204Z,28.80
2023-03-21T06:34:00.222Z,27.10
2023-03-21T06:35:00.213Z,29.10
2023-03-21T06:36:00.271Z,27.30
2023-03-21T06:37:00.166Z,25.20
2023-03-21T06:38:00.184Z,26.30
2023-03-21T06:39:00.145Z,26.60
2023-03-21T06:40:00.162Z,26.80
2023-03-21T06:41:00.152Z,26.20
2023-03-21T06:42:00.191Z,25.60
2023-03-21T06:43:00.104Z,26.20
2023-03-21T06:44:00.130Z,26.80
2023-03-21T06:45:00.087Z,26.00
2023-03-21T06:46:00.110Z,27.40
2023-03-21T06:47:00.147Z,25.10
2023-03-21T06:48:00.163Z,28.30
2023-03-21T06:49:00.038Z,26.20
2023-03-21T06:50:00.062Z,26.60
2023-03-21T06:51:00.016Z,27.10
2023-03-21T06:52:00.043Z,26.00
2023-03-21T06:53:00.005Z,27.30
2023-03-21T06:54:00.006Z,24.40
2023-03-21T06:54:59.970Z,22.80
2023-03-21T06:55:59.983Z,25.70
2023-03-21T06:56:59.954Z,22.40
2023-03-21T06:57:59.964Z,26.00
2023-03-21T06:58:59.961Z,22.80
2023-03-21T06:59:59.947Z,26.80
2023-03-21T07:01:00.012Z,24.00
2023-03-21T07:01:59.919Z,25.00
2023-03-21T07:02:59.944Z,27.60
2023-03-21T07:03:59.901Z,26.80
2023-03-21T07:04:59.891Z,25.70
2023-03-21T07:05:59.885Z,25.00
2023-03-21T07:06:59.873Z,27.00
2023-03-21T07:07:59.837Z,26.50
2023-03-21T07:08:59.848Z,25.10
2023-03-21T07:09:59.828Z,27.00
2023-03-21T07:10:59.845Z,25.60
2023-03-21T07:11:59.792Z,29.50
2023-03-21T07:12:59.823Z,26.20
2023-03-21T07:13:59.770Z,26.70
2023-03-21T07:14:59.804Z,25.80
2023-03-21T07:15:59.842Z,29.30
2023-03-21T07:16:59.775Z,27.80
2023-03-21T07:17:59.728Z,27.40
2023-03-21T07:18:59.744Z,25.00
2023-03-21T07:19:59.709Z,25.10
2023-03-21T07:20:59.722Z,28.50
2023-03-21T07:21:59.686Z,28.90
2023-03-21T07:22:59.714Z,24.30
2023-03-21T07:23:59.670Z,28.70
2023-03-21T07:25:05.120Z,30.10
2023-03-21T07:25:59.698Z,27.70
2023-03-21T07:26:59.654Z,32.60
2023-03-21T07:27:59.622Z,31.50
2023-03-21T07:28:59.667Z,31.80
2023-03-21T07:29:59.602Z,37.70
2023-03-21T07:30:59.626Z,47.80
2023-03-21T07:31:59.629Z,41.40
2023-03-21T07:32:59.596Z,40.30
2023-03-21T07:33:59.564Z,44.10
2023-03-21T07:35:01.645Z,58.40
2023-03-21T07:35:59.544Z,65.20
2023-03-21T07:36:59.548Z,47.70
2023-03-21T07:37:59.515Z,72.20
2023-03-21T07:38:59.530Z,88.70
2023-03-21T07:39:59.498Z,76.30
2023-03-21T07:40:59.533Z,84.90
2023-03-21T07:41:59.469Z,53.90
2023-03-21T07:42:59.483Z,80.80
2023-03-21T07:43:59.474Z,53.50
2023-03-21T07:44:59.483Z,87.00
2023-03-21T07:45:59.495Z,106.60
2023-03-21T07:46:59.470Z,103.10
2023-03-21T07:47:59.466Z,93.10
2023-03-21T07:48:59.424Z,84.70
2023-03-21T07:49:59.387Z,99.90
2023-03-21T07:50:59.401Z,86.10
2023-03-21T07:51:59.364Z,91.50
2023-03-21T07:52:59.400Z,94.60
2023-03-21T07:53:59.351Z,115.10
2023-03-21T07:54:59.357Z,97.20
2023-03-21T07:55:59.334Z,97.80
2023-03-21T07:56:59.337Z,96.60
2023-03-21T07:57:59.308Z,99.50
2023-03-21T07:58:59.351Z,104.10
2023-03-21T07:59:59.277Z,102.30
2023-03-21T08:00:59.290Z,75.20
2023-03-21T08:01:59.309Z,91.80
2023-03-21T08:02:59.311Z,83.30
2023-03-21T08:03:59.240Z,82.60
2023-03-21T08:04:59.277Z,86.60
2023-03-21T08:05:59.219Z,91.40
2023-03-21T08:06:59.228Z,59.50
2023-03-21T08:07:59.192Z,79.00
2023-03-21T08:08:59.205Z,71.00
2023-03-21T08:09:59.173Z,45.80
2023-03-21T08:10:59.209Z,64.70
2023-03-21T08:11:59.151Z,71.60
2023-03-21T08:12:59.181Z,93.80
2023-03-21T08:13:59.130Z,82.60
2023-03-21T08:15:01.139Z,75.10
2023-03-21T08:15:59.117Z,69.30
2023-03-21T08:16:59.198Z,63.80
2023-03-21T08:17:59.091Z,65.10
2023-03-21T08:18:59.102Z,68.00
2023-03-21T08:19:59.067Z,69.40
2023-03-21T08:20:59.084Z,58.90
2023-03-21T08:21:59.066Z,66.30
2023-03-21T08:22:59.083Z,71.80
2023-03-21T08:23:59.025Z,72.90
2023-03-21T08:24:59.034Z,68.40
2023-03-21T08:25:59.007Z,57.20
2023-03-21T08:26:59.016Z,59.10
2023-03-21T08:27:58.979Z,51.80
2023-03-21T08:28:59.018Z,64.90
2023-03-21T08:29:58.961Z,55.90
2023-03-21T08:30:58.985Z,42.70
2023-03-21T08:31:58.945Z,61.30
2023-03-21T08:33:01.197Z,52.20
2023-03-21T08:33:58.925Z,65.80
2023-03-21T08:34:59.042Z,44.20
2023-03-21T08:35:58.938Z,49.20
2023-03-21T08:36:58.913Z,51.40
2023-03-21T08:37:58.877Z,48.60
2023-03-21T08:38:58.904Z,56.50
2023-03-21T08:39:58.915Z,47.40
2023-03-21T08:41:00.285Z,54.10
2023-03-21T08:41:58.837Z,59.10
2023-03-21T08:42:58.845Z,56.70
2023-03-21T08:43:58.815Z,45.00
2023-03-21T08:44:58.825Z,62.70
2023-03-21T08:45:58.835Z,69.10
2023-03-21T08:46:58.820Z,47.70
2023-03-21T08:47:58.789Z,59.10
2023-03-21T08:48:58.784Z,62.10
2023-03-21T08:49:59.233Z,74.50
2023-03-21T08:50:58.759Z,77.70
2023-03-21T08:51:58.725Z,65.30
2023-03-21T08:52:58.771Z,64.20
2023-03-21T08:53:58.701Z,76.90
2023-03-21T08:54:58.717Z,72.90
2023-03-21T08:55:58.685Z,82.00
2023-03-21T08:56:58.709Z,74.30
2023-03-21T08:57:58.680Z,81.20
2023-03-21T08:58:58.699Z,72.50
2023-03-21T08:59:58.643Z,69.40
2023-03-21T09:00:58.654Z,59.10
2023-03-21T09:01:58.721Z,87.60
2023-03-21T09:02:58.635Z,86.00
2023-03-21T09:03:58.611Z,66.10
2023-03-21T09:04:58.773Z,49.00
2023-03-21T09:05:58.586Z,66.70
2023-03-21T09:06:58.588Z,67.80
2023-03-21T09:07:58.568Z,79.50
2023-03-21T09:08:58.564Z,61.50
2023-03-21T09:10:19.235Z,52.60
2023-03-21T09:10:58.587Z,46.20
2023-03-21T09:11:58.552Z,51.50
2023-03-21T09:12:58.531Z,42.40
2023-03-21T09:13:58.498Z,68.90
2023-03-21T09:14:58.510Z,70.60
2023-03-21T09:15:58.507Z,73.40
2023-03-21T09:16:58.503Z,64.40
2023-03-21T09:17:58.469Z,55.30
2023-03-21T09:18:58.458Z,62.20
2023-03-21T09:19:58.425Z,80.30
2023-03-21T09:20:58.447Z,78.80
2023-03-21T09:21:58.415Z,69.00
2023-03-21T09:22:58.432Z,70.90
2023-03-21T09:23:58.427Z,80.10
2023-03-21T09:24:58.392Z,80.90
2023-03-21T09:25:58.362Z,56.30
2023-03-21T09:26:58.377Z,81.30
2023-03-21T09:27:58.339Z,55.30
2023-03-21T09:28:58.398Z,49.80
2023-03-21T09:29:58.318Z,56.30
2023-03-21T09:30:58.378Z,69.20
2023-03-21T09:31:58.295Z,63.20
2023-03-21T09:32:58.307Z,59.40
2023-03-21T09:33:58.302Z,60.60
2023-03-21T09:34:58.311Z,39.10
2023-03-21T09:35:58.273Z,47.40
2023-03-21T09:36:58.280Z,52.90
2023-03-21T09:37:58.236Z,52.10
2023-03-21T09:38:58.253Z,62.50
2023-03-21T09:39:58.214Z,49.90
2023-03-21T09:40:58.284Z,55.00
2023-03-21T09:41:58.187Z,50.40
2023-03-21T09:42:58.242Z,58.70
2023-03-21T09:43:58.193Z,53.30
2023-03-21T09:44:58.194Z,44.70
2023-03-21T09:45:58.385Z,56.00
2023-03-21T09:46:58.230Z,61.70
2023-03-21T09:47:58.179Z,54.50
2023-03-21T09:48:58.146Z,59.20
2023-03-21T09:50:07.600Z,56.60
2023-03-21T09:50:58.123Z,51.50
2023-03-21T09:51:58.085Z,46.80
2023-03-21T09:52:58.127Z,39.50
2023-03-21T09:53:58.064Z,39.90
2023-03-21T09:54:58.071Z,33.00
2023-03-21T09:55:58.034Z,44.70
2023-03-21T09:56:58.055Z,51.30
2023-03-21T09:57:58.032Z,45.80
2023-03-21T09:58:58.047Z,45.20
2023-03-21T09:59:57.997Z,49.10
2023-03-21T10:00:58.129Z,41.90
2023-03-21T10:01:58.215Z,54.50
2023-03-21T10:02:57.985Z,52.10
2023-03-21T10:03:57.969Z,59.70
2023-03-21T10:04:57.982Z,48.50
2023-03-21T10:05:57.944Z,38.50
2023-03-21T10:06:57.983Z,58.50
2023-03-21T10:07:57.923Z,47.80
2023-03-21T10:08:57.929Z,45.80
2023-03-21T10:09:57.894Z,44.90
2023-03-21T10:10:57.913Z,53.80
2023-03-21T10:11:57.872Z,54.40
2023-03-21T10:12:57.906Z,37.20
2023-03-21T10:13:57.841Z,54.00
2023-03-21T10:14:58.154Z,50.00
2023-03-21T10:15:57.914Z,50.60
2023-03-21T10:16:57.873Z,48.30
2023-03-21T10:17:57.797Z,65.90
2023-03-21T10:18:57.851Z,63.90
2023-03-21T10:19:57.779Z,53.40
2023-03-21T10:20:57.793Z,45.60
2023-03-21T10:22:03.023Z,39.80
2023-03-21T10:22:57.807Z,51.00
2023-03-21T10:23:57.738Z,55.30
2023-03-21T10:24:57.745Z,65.30
2023-03-21T10:25:57.744Z,60.20
2023-03-21T10:26:57.727Z,74.30
2023-03-21T10:27:57.696Z,68.60
2023-03-21T10:28:57.735Z,45.30
2023-03-21T10:29:57.681Z,80.50
2023-03-21T10:30:57.687Z,92.70
2023-03-21T10:31:57.794Z,80.40
2023-03-21T10:32:59.591Z,67.20
2023-03-21T10:33:57.634Z,48.30
2023-03-21T10:34:57.769Z,61.70
2023-03-21T10:35:57.628Z,51.60
2023-03-21T10:36:57.618Z,67.80
2023-03-21T10:37:57.579Z,58.80
2023-03-21T10:38:57.596Z,64.30
2023-03-21T10:39:57.566Z,72.20
2023-03-21T10:40:57.617Z,65.10
2023-03-21T10:41:57.578Z,45.70
2023-03-21T10:42:57.552Z,59.10
2023-03-21T10:43:57.519Z,51.20
2023-03-21T10:44:57.647Z,72.90
2023-03-21T10:45:57.666Z,63.80
2023-03-21T10:46:57.751Z,71.40
2023-03-21T10:47:57.767Z,67.20
2023-03-21T10:48:57.586Z,77.30
2023-03-21T10:50:07.355Z,70.10
2023-03-21T10:50:57.528Z,80.70
2023-03-21T10:51:57.431Z,88.00
2023-03-21T10:52:57.472Z,87.40
2023-03-21T10:53:57.524Z,71.90
2023-03-21T10:54:57.436Z,74.00
2023-03-21T10:55:57.389Z,60.60
2023-03-21T10:56:57.407Z,74.90
2023-03-21T10:57:57.381Z,50.80
2023-03-21T10:58:57.398Z,62.40
2023-03-21T10:59:57.346Z,62.00
2023-03-21T11:00:57.386Z,75.40
2023-03-21T11:01:57.414Z,83.70
2023-03-21T11:02:57.359Z,72.20
2023-03-21T11:03:57.319Z,91.10
2023-03-21T11:04:57.352Z,70.40
2023-03-21T11:05:57.293Z,63.10
2023-03-21T11:06:57.353Z,61.60
2023-03-21T11:07:57.279Z,45.40
2023-03-21T11:08:57.272Z,52.90
2023-03-21T11:09:57.246Z,56.80
2023-03-21T11:10:57.274Z,55.60
2023-03-21T11:11:57.221Z,50.10
2023-03-21T11:12:57.244Z,53.20
2023-03-21T11:13:57.246Z,56.60
2023-03-21T11:14:57.230Z,52.90
2023-03-21T11:15:57.178Z,52.60
2023-03-21T11:16:57.226Z,38.10
2023-03-21T11:17:57.176Z,42.70
2023-03-21T11:18:57.173Z,57.30
2023-03-21T11:19:57.216Z,45.00
2023-03-21T11:20:57.164Z,49.00
2023-03-21T11:21:57.115Z,52.40
2023-03-21T11:22:57.154Z,45.00
2023-03-21T11:23:57.332Z,44.00
2023-03-21T11:24:57.082Z,56.70
2023-03-21T11:25:57.114Z,46.70
2023-03-21T11:26:57.078Z,40.90
2023-03-21T11:27:57.117Z,52.00
2023-03-21T11:28:57.103Z,55.70
2023-03-21T11:29:57.055Z,52.00
2023-03-21T11:30:57.072Z,48.10
2023-03-21T11:31:57.038Z,46.40
2023-03-21T11:32:57.004Z,46.90
2023-03-21T11:33:57.184Z,47.90
2023-03-21T11:34:57.006Z,55.20
2023-03-21T11:35:57.123Z,40.00
2023-03-21T11:36:56.958Z,38.90
2023-03-21T11:37:57.086Z,40.80
2023-03-21T11:38:56.936Z,32.30
2023-03-21T11:39:57.058Z,32.70
2023-03-21T11:40:56.926Z,42.20
2023-03-21T11:41:56.929Z,39.70
2023-03-21T11:42:56.946Z,44.70
2023-03-21T11:43:56.903Z,31.30
2023-03-21T11:44:56.883Z,36.80
2023-03-21T11:45:56.946Z,38.40
2023-03-21T11:46:56.873Z,33.10
2023-03-21T11:47:56.945Z,35.80
2023-03-21T11:48:56.835Z,28.70
2023-03-21T11:50:04.686Z,34.50
2023-03-21T11:50:56.810Z,28.90
2023-03-21T11:51:56.827Z,28.10
2023-03-21T11:52:56.807Z,30.50
2023-03-21T11:53:56.822Z,25.80
2023-03-21T11:54:56.765Z,30.80
2023-03-21T11:55:56.889Z,33.00
2023-03-21T11:56:56.758Z,34.10
2023-03-21T11:58:00.174Z,31.50
2023-03-21T11:58:58.795Z,40.40
2023-03-21T11:59:56.738Z,32.60
2023-03-21T12:00:56.700Z,31.20
2023-03-21T12:01:56.708Z,27.50
2023-03-21T12:02:56.735Z,33.50
2023-03-21T12:03:56.727Z,33.00
2023-03-21T12:04:56.697Z,36.30
2023-03-21T12:05:56.675Z,40.50
2023-03-21T12:06:56.635Z,34.50
2023-03-21T12:07:56.642Z,39.80
2023-03-21T12:08:56.623Z,38.70
2023-03-21T12:09:56.621Z,33.70
2023-03-21T12:10:56.613Z,34.40
2023-03-21T12:11:56.608Z,31.00
2023-03-21T12:12:56.567Z,32.00
2023-03-21T12:13:56.584Z,36.20
2023-03-21T12:14:56.547Z,46.70
2023-03-21T12:15:56.625Z,37.00
2023-03-21T12:16:56.537Z,39.80
2023-03-21T12:17:56.540Z,40.00
2023-03-21T12:18:56.513Z,32.90
2023-03-21T12:19:56.527Z,40.50
2023-03-21T12:20:56.477Z,41.50
2023-03-21T12:21:56.491Z,41.60
2023-03-21T12:22:56.523Z,29.70
2023-03-21T12:23:56.481Z,41.50
2023-03-21T12:24:56.441Z,33.60
2023-03-21T12:25:56.591Z,36.90
2023-03-21T12:26:58.103Z,29.60
2023-03-21T12:27:56.451Z,35.90
2023-03-21T12:28:56.416Z,41.70
2023-03-21T12:29:56.405Z,32.60
2023-03-21T12:30:56.446Z,27.60
2023-03-21T12:31:56.390Z,32.40
2023-03-21T12:32:56.352Z,30.90
2023-03-21T12:33:56.373Z,26.40
2023-03-21T12:34:56.361Z,26.80
2023-03-21T12:35:56.364Z,23.90
2023-03-21T12:36:56.301Z,20.70
2023-03-21T12:37:57.922Z,25.40
2023-03-21T12:38:56.286Z,24.50
2023-03-21T12:39:56.304Z,20.70
2023-03-21T12:40:56.274Z,26.60
2023-03-21T12:41:56.281Z,19.30
2023-03-21T12:42:56.232Z,19.70
2023-03-21T12:43:56.257Z,25.30
2023-03-21T12:44:56.247Z,22.20
2023-03-21T12:45:56.234Z,21.40
2023-03-21T12:46:56.298Z,22.20
2023-03-21T12:47:56.436Z,20.20
2023-03-21T12:48:56.169Z,17.10
2023-03-21T12:49:56.198Z,18.90
2023-03-21T12:50:56.170Z,20.10
2023-03-21T12:51:56.180Z,18.10